createdAt,value
2022-12-11T00:00:54.114Z,1.82
2022-12-11T00:03:20.827Z,2.10
2022-12-11T00:05:47.395Z,1.68
2022-12-11T00:08:14.262Z,1.77
2022-12-11T00:10:48.025Z,1.55
2022-12-11T00:13:14.564Z,1.56
2022-12-11T00:15:41.075Z,1.68
2022-12-11T00:18:12.033Z,1.72
2022-12-11T00:20:38.514Z,1.93
2022-12-11T00:23:05.500Z,1.83
2022-12-11T00:25:32.010Z,1.94
2022-12-11T00:27:58.530Z,2.11
2022-12-11T00:30:25.017Z,2.13
2022-12-11T00:32:51.911Z,1.89
2022-12-11T00:35:18.445Z,1.67
2022-12-11T00:37:44.974Z,1.37
2022-12-11T00:40:11.601Z,1.77
2022-12-11T00:42:38.277Z,1.38
2022-12-11T00:45:04.963Z,1.70
2022-12-11T00:47:31.495Z,1.89
2022-12-11T00:49:58.044Z,1.71
2022-12-11T00:52:24.726Z,2.00
2022-12-11T00:54:51.209Z,1.78
2022-12-11T00:57:17.715Z,1.99
2022-12-11T00:59:44.272Z,2.01
2022-12-11T01:02:10.777Z,2.04
2022-12-11T01:04:37.482Z,2.15
2022-12-11T01:07:04.298Z,2.24
2022-12-11T01:09:49.192Z,2.27
2022-12-11T01:12:15.732Z,2.16
2022-12-11T01:14:42.234Z,2.20
2022-12-11T01:17:08.729Z,2.17
2022-12-11T01:19:35.267Z,2.29
2022-12-11T01:22:01.733Z,2.10
2022-12-11T01:24:28.507Z,2.21
2022-12-11T01:26:54.973Z,2.31
2022-12-11T01:29:21.481Z,2.44
2022-12-11T01:31:47.980Z,2.41
2022-12-11T01:34:14.490Z,2.42
2022-12-11T01:36:40.972Z,2.35
2022-12-11T01:39:07.518Z,2.47
2022-12-11T01:41:34.049Z,2.53
2022-12-11T01:44:21.207Z,2.54
2022-12-11T01:46:47.937Z,2.28
2022-12-11T01:49:15.582Z,2.41
2022-12-11T01:51:55.015Z,2.29
2022-12-11T01:54:22.940Z,2.20
2022-12-11T01:56:51.978Z,2.35
2022-12-11T01:59:21.420Z,2.26
2022-12-11T02:01:52.885Z,2.27
2022-12-11T02:04:20.014Z,2.20
2022-12-11T02:06:48.961Z,2.00
2022-12-11T02:09:18.373Z,2.08
2022-12-11T02:12:00.096Z,1.77
2022-12-11T02:14:44.246Z,1.41
2022-12-11T02:17:14.541Z,1.79
2022-12-11T02:20:07.239Z,1.83
2022-12-11T02:22:38.775Z,1.91
2022-12-11T02:25:16.890Z,1.98
2022-12-11T02:27:56.394Z,2.11
2022-12-11T02:30:23.677Z,1.79
2022-12-11T02:32:56.883Z,2.03
2022-12-11T02:35:31.423Z,2.10
2022-12-11T02:38:02.667Z,2.11
2022-12-11T02:40:31.826Z,2.22
2022-12-11T02:43:01.345Z,2.15
2022-12-11T02:45:28.645Z,2.13
2022-12-11T02:47:57.518Z,2.42
2022-12-11T02:50:25.102Z,2.18
2022-12-11T02:52:54.238Z,2.30
2022-12-11T02:55:20.796Z,2.39
2022-12-11T02:57:53.883Z,2.22
2022-12-11T03:00:21.827Z,2.39
2022-12-11T03:02:48.975Z,2.33
2022-12-11T03:05:15.806Z,2.42
2022-12-11T03:07:44.254Z,2.20
2022-12-11T03:10:14.609Z,2.20
2022-12-11T03:12:43.499Z,2.11
2022-12-11T03:15:14.600Z,2.30
2022-12-11T03:17:54.831Z,2.25
2022-12-11T03:20:30.826Z,2.24
2022-12-11T03:23:21.571Z,2.35
2022-12-11T03:25:57.342Z,2.23
2022-12-11T03:28:29.576Z,2.33
2022-12-11T03:30:56.507Z,2.31
2022-12-11T03:33:30.951Z,2.00
2022-12-11T03:36:04.085Z,1.62
2022-12-11T03:38:42.715Z,1.25
2022-12-11T03:41:10.246Z,1.11
2022-12-11T03:43:37.497Z,1.55
2022-12-11T03:46:04.731Z,1.08
2022-12-11T03:48:33.959Z,1.16
2022-12-11T03:51:02.535Z,1.08
2022-12-11T03:53:29.229Z,0.96
2022-12-11T03:55:58.204Z,1.28
2022-12-11T03:58:24.808Z,1.10
2022-12-11T04:00:51.319Z,0.94
2022-12-11T04:03:17.975Z,1.26
2022-12-11T04:05:49.636Z,1.26
2022-12-11T04:08:17.989Z,1.69
2022-12-11T04:10:44.567Z,1.81
2022-12-11T04:13:11.089Z,1.40
2022-12-11T04:15:38.249Z,1.72
2022-12-11T04:18:40.850Z,1.94
2022-12-11T04:21:27.549Z,2.03
2022-12-11T04:24:12.502Z,2.06
2022-12-11T04:26:39.133Z,2.06
2022-12-11T04:29:05.722Z,1.96
2022-12-11T04:31:32.644Z,1.49
2022-12-11T04:33:59.180Z,1.62
2022-12-11T04:36:25.687Z,1.73
2022-12-11T04:38:52.186Z,1.76
2022-12-11T04:41:18.882Z,1.78
2022-12-11T04:43:45.540Z,1.64
2022-12-11T04:46:21.930Z,1.77
2022-12-11T04:48:52.532Z,1.79
2022-12-11T04:51:23.539Z,1.70
2022-12-11T04:53:50.030Z,1.65
2022-12-11T04:56:16.887Z,1.64
2022-12-11T04:58:44.202Z,1.73
2022-12-11T05:01:16.635Z,1.70
2022-12-11T05:03:43.381Z,1.74
2022-12-11T05:06:10.325Z,1.72
2022-12-11T05:08:38.443Z,1.73
2022-12-11T05:11:06.851Z,1.78
2022-12-11T05:13:33.392Z,1.53
2022-12-11T05:16:00.009Z,1.67
2022-12-11T05:18:26.622Z,1.80
2022-12-11T05:21:01.175Z,1.71
2022-12-11T05:23:27.754Z,1.55
2022-12-11T05:25:55.590Z,1.58
2022-12-11T05:28:23.274Z,1.41
2022-12-11T05:30:57.992Z,1.28
2022-12-11T05:33:25.298Z,1.36
2022-12-11T05:35:52.137Z,1.44
2022-12-11T05:38:18.942Z,1.41
2022-12-11T05:40:45.443Z,1.42
2022-12-11T05:43:11.968Z,1.26
2022-12-11T05:45:38.821Z,1.15
2022-12-11T05:48:05.501Z,1.11
2022-12-11T05:50:32.926Z,1.18
2022-12-11T05:53:00.014Z,1.27
2022-12-11T05:55:26.546Z,1.37
2022-12-11T05:57:53.062Z,1.41
2022-12-11T06:00:19.615Z,1.35
2022-12-11T06:02:46.150Z,1.22
2022-12-11T06:05:17.671Z,1.25
2022-12-11T06:07:50.059Z,1.29
2022-12-11T06:10:16.838Z,1.27
2022-12-11T06:12:43.463Z,1.03
2022-12-11T06:15:19.185Z,1.00
2022-12-11T06:17:45.679Z,0.84
2022-12-11T06:20:12.205Z,0.71
2022-12-11T06:22:38.891Z,0.82
2022-12-11T06:25:06.285Z,0.71
2022-12-11T06:27:40.597Z,0.67
2022-12-11T06:30:19.075Z,0.58
2022-12-11T06:32:53.473Z,0.49
2022-12-11T06:35:20.263Z,0.57
2022-12-11T06:37:49.772Z,0.58
2022-12-11T06:40:16.442Z,0.38
2022-12-11T06:42:43.019Z,0.43
2022-12-11T06:45:10.507Z,0.39
2022-12-11T06:47:37.311Z,0.32
2022-12-11T06:50:04.053Z,0.27
2022-12-11T06:52:34.221Z,0.16
2022-12-11T06:55:07.012Z,0.21
2022-12-11T06:57:37.005Z,0.48
2022-12-11T07:00:04.283Z,0.67
2022-12-11T07:02:30.842Z,0.71
2022-12-11T07:04:57.377Z,0.83
2022-12-11T07:07:23.911Z,0.90
2022-12-11T07:09:51.608Z,1.25
2022-12-11T07:12:18.211Z,1.33
2022-12-11T07:14:44.822Z,1.18
2022-12-11T07:17:11.385Z,1.30
2022-12-11T07:19:37.904Z,1.28
2022-12-11T07:22:04.410Z,1.59
2022-12-11T07:24:31.063Z,1.70
2022-12-11T07:26:57.733Z,1.44
2022-12-11T07:29:24.251Z,1.40
2022-12-11T07:31:50.894Z,1.73
2022-12-11T07:34:17.413Z,1.92
2022-12-11T07:36:43.997Z,1.87
2022-12-11T07:39:12.116Z,1.92
2022-12-11T07:41:39.466Z,1.93
2022-12-11T07:44:10.411Z,1.81
2022-12-11T07:46:37.655Z,1.44
2022-12-11T07:49:05.961Z,1.23
2022-12-11T07:51:36.342Z,1.14
2022-12-11T07:54:16.360Z,1.27
2022-12-11T07:56:51.160Z,1.74
2022-12-11T07:59:20.980Z,1.86
2022-12-11T08:01:49.244Z,1.82
2022-12-11T08:04:15.977Z,1.81
2022-12-11T08:06:43.177Z,1.29
2022-12-11T08:09:17.486Z,1.73
2022-12-11T08:11:49.582Z,1.35
2022-12-11T08:14:16.335Z,1.46
2022-12-11T08:16:44.185Z,1.52
2022-12-11T08:19:13.932Z,1.74
2022-12-11T08:21:40.920Z,2.10
2022-12-11T08:24:08.392Z,1.39
2022-12-11T08:26:34.919Z,1.70
2022-12-11T08:29:02.562Z,2.17
2022-12-11T08:31:29.694Z,1.90
2022-12-11T08:33:56.963Z,1.80
2022-12-11T08:36:23.756Z,1.53
2022-12-11T08:38:50.804Z,1.94
2022-12-11T08:41:36.219Z,2.25
2022-12-11T08:44:05.962Z,2.08
2022-12-11T08:46:32.815Z,1.54
2022-12-11T08:48:59.809Z,1.90
2022-12-11T08:51:27.935Z,2.14
2022-12-11T08:53:56.122Z,2.24
2022-12-11T08:56:23.726Z,2.33
2022-12-11T08:58:58.478Z,2.33
2022-12-11T09:01:26.471Z,2.44
2022-12-11T09:03:54.815Z,2.54
2022-12-11T09:06:23.544Z,2.57
2022-12-11T09:08:52.993Z,2.79
2022-12-11T09:11:22.872Z,2.78
2022-12-11T09:13:49.529Z,2.84
2022-12-11T09:16:17.718Z,2.87
2022-12-11T09:18:49.287Z,2.66
2022-12-11T09:21:18.358Z,2.94
2022-12-11T09:23:44.853Z,2.85
2022-12-11T09:26:14.428Z,2.98
2022-12-11T09:28:46.324Z,2.98
2022-12-11T09:31:16.136Z,3.07
2022-12-11T09:33:42.833Z,3.04
2022-12-11T09:36:10.038Z,2.88
2022-12-11T09:38:36.629Z,3.06
2022-12-11T09:41:22.396Z,2.87
2022-12-11T09:43:54.350Z,3.08
2022-12-11T09:46:24.439Z,3.14
2022-12-11T09:48:53.441Z,3.13
2022-12-11T09:51:19.947Z,3.22
2022-12-11T09:53:46.642Z,2.30
2022-12-11T09:56:29.743Z,2.89
2022-12-11T09:59:08.066Z,2.91
2022-12-11T10:01:40.789Z,3.09
2022-12-11T10:04:35.505Z,3.11
2022-12-11T10:07:14.406Z,3.15
2022-12-11T10:09:44.156Z,3.13
2022-12-11T10:12:26.239Z,3.11
2022-12-11T10:15:16.890Z,3.23
2022-12-11T10:17:47.438Z,3.25
2022-12-11T10:20:28.591Z,3.08
2022-12-11T10:22:56.748Z,3.37
2022-12-11T10:25:32.326Z,3.46
2022-12-11T10:28:00.544Z,3.55
2022-12-11T10:30:34.732Z,3.54
2022-12-11T10:33:10.927Z,3.65
2022-12-11T10:35:46.308Z,3.72
2022-12-11T10:38:21.427Z,3.74
2022-12-11T10:40:52.221Z,3.96
2022-12-11T10:43:18.877Z,4.03
2022-12-11T10:45:53.207Z,3.79
2022-12-11T10:48:20.670Z,3.71
2022-12-11T10:50:57.549Z,3.86
2022-12-11T10:53:24.184Z,4.00
2022-12-11T10:55:50.739Z,3.95
2022-12-11T10:58:20.270Z,3.97
2022-12-11T11:00:58.495Z,4.02
2022-12-11T11:03:27.617Z,4.10
2022-12-11T11:06:21.571Z,3.92
2022-12-11T11:08:50.977Z,4.04
2022-12-11T11:11:33.934Z,4.25
2022-12-11T11:14:05.939Z,4.21
2022-12-11T11:16:36.207Z,4.26
2022-12-11T11:19:02.783Z,3.97
2022-12-11T11:21:30.300Z,4.11
2022-12-11T11:23:56.865Z,3.93
2022-12-11T11:26:23.635Z,3.79
2022-12-11T11:28:55.629Z,3.53
2022-12-11T11:31:31.459Z,3.19
2022-12-11T11:34:00.299Z,3.68
2022-12-11T11:36:28.635Z,3.32
2022-12-11T11:39:07.380Z,2.88
2022-12-11T11:41:58.669Z,2.87
2022-12-11T11:44:30.019Z,3.11
2022-12-11T11:47:10.616Z,3.24
2022-12-11T11:49:55.435Z,3.52
2022-12-11T11:52:28.532Z,3.81
2022-12-11T11:55:21.659Z,4.15
2022-12-11T11:57:55.833Z,4.44
2022-12-11T12:00:31.918Z,4.29
2022-12-11T12:03:04.173Z,4.08
2022-12-11T12:05:50.591Z,4.11
2022-12-11T12:08:33.293Z,4.01
2022-12-11T12:11:10.771Z,3.79
2022-12-11T12:14:12.849Z,3.74
2022-12-11T12:17:26.378Z,3.78
2022-12-11T12:19:53.270Z,3.92
2022-12-11T12:22:35.550Z,3.68
2022-12-11T12:25:24.932Z,3.84
2022-12-11T12:28:00.771Z,3.86
2022-12-11T12:30:32.310Z,4.02
2022-12-11T12:33:04.965Z,3.79
2022-12-11T12:35:36.932Z,4.08
2022-12-11T12:38:22.743Z,3.89
2022-12-11T12:41:04.605Z,3.68
2022-12-11T12:43:53.178Z,3.44
2022-12-11T12:46:27.650Z,3.65
2022-12-11T12:48:55.514Z,3.65
2022-12-11T12:51:22.094Z,3.70
2022-12-11T12:53:59.709Z,3.24
2022-12-11T12:56:28.023Z,3.58
2022-12-11T12:58:59.072Z,3.48
2022-12-11T13:01:27.795Z,3.52
2022-12-11T13:04:03.034Z,3.29
2022-12-11T13:06:41.104Z,3.40
2022-12-11T13:09:17.420Z,3.00
2022-12-11T13:11:45.769Z,3.16
2022-12-11T13:14:15.427Z,2.80
2022-12-11T13:16:43.884Z,2.79
2022-12-11T13:19:42.397Z,2.74
2022-12-11T13:22:12.257Z,2.49
2022-12-11T13:24:48.902Z,2.62
2022-12-11T13:27:29.642Z,2.21
2022-12-11T13:30:23.184Z,2.61
2022-12-11T13:33:14.890Z,2.77
2022-12-11T13:35:41.611Z,2.72
2022-12-11T13:38:15.849Z,2.95
2022-12-11T13:40:44.498Z,3.12
2022-12-11T13:43:28.882Z,2.94
2022-12-11T13:46:03.907Z,3.19
2022-12-11T13:48:34.204Z,3.01
2022-12-11T13:51:01.592Z,3.11
2022-12-11T13:53:28.410Z,3.31
2022-12-11T13:56:00.585Z,3.34
2022-12-11T13:58:28.230Z,3.21
2022-12-11T14:01:11.496Z,2.94
2022-12-11T14:03:52.837Z,3.19
2022-12-11T14:06:19.259Z,3.09
2022-12-11T14:08:48.673Z,3.19
2022-12-11T14:11:27.755Z,3.16
2022-12-11T14:13:55.747Z,3.26
2022-12-11T14:16:24.388Z,3.30
2022-12-11T14:18:51.721Z,3.30
2022-12-11T14:21:20.344Z,3.32
2022-12-11T14:23:58.021Z,3.38
2022-12-11T14:26:27.157Z,3.43
2022-12-11T14:28:53.949Z,3.22
2022-12-11T14:31:31.038Z,3.26
2022-12-11T14:34:02.158Z,3.12
2022-12-11T14:36:29.409Z,2.91
2022-12-11T14:38:59.725Z,2.58
2022-12-11T14:41:36.780Z,2.73
2022-12-11T14:44:05.334Z,2.72
2022-12-11T14:46:39.146Z,2.79
2022-12-11T14:49:12.844Z,2.77
2022-12-11T14:51:40.775Z,2.58
2022-12-11T14:54:07.905Z,2.60
2022-12-11T14:56:34.855Z,2.64
2022-12-11T14:59:06.719Z,2.53
2022-12-11T15:01:35.922Z,2.31
2022-12-11T15:04:14.635Z,2.45
2022-12-11T15:06:46.903Z,2.56
2022-12-11T15:09:28.841Z,2.19
2022-12-11T15:11:57.554Z,2.28
2022-12-11T15:14:25.562Z,2.21
2022-12-11T15:16:54.782Z,2.43
2022-12-11T15:19:31.682Z,2.39
2022-12-11T15:22:05.845Z,2.39
2022-12-11T15:24:38.290Z,2.39
2022-12-11T15:27:04.865Z,2.29
2022-12-11T15:29:39.670Z,2.25
2022-12-11T15:32:09.168Z,2.08
2022-12-11T15:34:43.048Z,2.25
2022-12-11T15:37:18.610Z,2.20
2022-12-11T15:39:45.134Z,2.01
2022-12-11T15:42:14.817Z,1.96
2022-12-11T15:44:41.975Z,1.80
2022-12-11T15:47:13.515Z,1.69
2022-12-11T15:49:40.033Z,1.90
2022-12-11T15:52:06.516Z,1.86
2022-12-11T15:54:33.161Z,1.80
2022-12-11T15:57:01.769Z,2.07
2022-12-11T15:59:28.268Z,2.02
2022-12-11T16:01:54.806Z,1.98
2022-12-11T16:04:21.381Z,1.99
2022-12-11T16:06:47.862Z,2.01
2022-12-11T16:09:14.409Z,2.03
2022-12-11T16:11:40.899Z,2.00
2022-12-11T16:14:07.380Z,1.97
2022-12-11T16:16:33.895Z,2.02
2022-12-11T16:19:00.748Z,1.81
2022-12-11T16:21:27.275Z,1.99
2022-12-11T16:23:53.809Z,1.98
2022-12-11T16:26:20.377Z,1.84
2022-12-11T16:28:46.886Z,1.76
2022-12-11T16:31:14.800Z,1.85
2022-12-11T16:33:41.698Z,1.95
2022-12-11T16:36:21.932Z,1.93
2022-12-11T16:38:53.570Z,1.84
2022-12-11T16:41:22.818Z,1.96
2022-12-11T16:43:49.717Z,2.14
2022-12-11T16:46:20.350Z,2.08
2022-12-11T16:48:47.050Z,1.80
2022-12-11T16:51:13.879Z,1.85
2022-12-11T16:53:40.867Z,1.83
2022-12-11T16:56:08.320Z,1.79
2022-12-11T16:58:35.275Z,1.65
2022-12-11T17:01:02.364Z,1.65
2022-12-11T17:03:30.234Z,1.89
2022-12-11T17:05:57.712Z,1.91
2022-12-11T17:08:24.749Z,1.83
2022-12-11T17:10:52.175Z,1.86
2022-12-11T17:13:18.819Z,1.74
2022-12-11T17:15:45.683Z,2.01
2022-12-11T17:18:12.402Z,1.97
2022-12-11T17:20:42.818Z,1.84
2022-12-11T17:23:11.015Z,1.91
2022-12-11T17:25:44.799Z,1.98
2022-12-11T17:28:13.622Z,1.93
2022-12-11T17:30:44.157Z,1.76
2022-12-11T17:33:11.704Z,1.83
2022-12-11T17:35:38.656Z,1.85
2022-12-11T17:38:05.315Z,1.74
2022-12-11T17:40:32.087Z,1.92
2022-12-11T17:42:59.278Z,1.91
2022-12-11T17:45:25.827Z,2.02
2022-12-11T17:47:52.310Z,2.03
2022-12-11T17:50:19.416Z,2.31
2022-12-11T17:52:45.888Z,2.30
2022-12-11T17:55:12.778Z,1.91
2022-12-11T17:57:39.546Z,1.92
2022-12-11T18:00:06.849Z,1.52
2022-12-11T18:02:38.892Z,1.53
2022-12-11T18:05:06.175Z,1.36
2022-12-11T18:07:32.666Z,1.20
2022-12-11T18:09:59.229Z,0.97
2022-12-11T18:12:25.799Z,0.84
2022-12-11T18:14:52.353Z,0.78
2022-12-11T18:17:18.842Z,0.94
2022-12-11T18:19:46.324Z,0.76
2022-12-11T18:22:12.908Z,0.78
2022-12-11T18:24:39.421Z,0.75
2022-12-11T18:27:10.168Z,0.58
2022-12-11T18:29:37.072Z,0.57
2022-12-11T18:32:03.845Z,0.60
2022-12-11T18:34:30.398Z,0.49
2022-12-11T18:36:56.932Z,0.54
2022-12-11T18:39:23.845Z,0.45
2022-12-11T18:42:09.737Z,0.39
2022-12-11T18:44:37.633Z,0.51
2022-12-11T18:47:04.221Z,0.64
2022-12-11T18:49:31.008Z,0.69
2022-12-11T18:51:57.562Z,0.66
2022-12-11T18:54:24.086Z,0.69
2022-12-11T18:56:50.563Z,0.66
2022-12-11T18:59:18.238Z,0.74
2022-12-11T19:01:44.773Z,0.73
2022-12-11T19:04:11.299Z,0.62
2022-12-11T19:06:37.925Z,0.72
2022-12-11T19:09:06.803Z,0.70
2022-12-11T19:11:34.228Z,0.66
2022-12-11T19:14:00.975Z,0.83
2022-12-11T19:16:30.020Z,0.79
2022-12-11T19:19:01.700Z,0.89
2022-12-11T19:21:30.129Z,0.91
2022-12-11T19:23:56.644Z,0.92
2022-12-11T19:26:23.947Z,0.87
2022-12-11T19:28:51.349Z,0.85
2022-12-11T19:31:21.385Z,1.06
2022-12-11T19:33:48.123Z,1.01
2022-12-11T19:36:20.791Z,0.79
2022-12-11T19:38:47.800Z,0.74
2022-12-11T19:41:23.501Z,0.90
2022-12-11T19:43:50.836Z,0.80
2022-12-11T19:46:18.798Z,0.77
2022-12-11T19:48:45.407Z,0.61
2022-12-11T19:51:17.375Z,0.58
2022-12-11T19:53:45.630Z,0.56
2022-12-11T19:56:12.805Z,0.67
2022-12-11T19:58:40.545Z,0.56
2022-12-11T20:01:07.466Z,0.45
2022-12-11T20:03:35.039Z,0.39
2022-12-11T20:06:07.217Z,0.54
2022-12-11T20:08:49.484Z,0.69
2022-12-11T20:11:18.620Z,0.89
2022-12-11T20:13:46.705Z,1.10
2022-12-11T20:16:13.937Z,1.35
2022-12-11T20:18:40.603Z,1.50
2022-12-11T20:21:09.417Z,1.56
2022-12-11T20:23:36.589Z,1.48
2022-12-11T20:26:08.400Z,1.46
2022-12-11T20:28:35.354Z,1.49
2022-12-11T20:31:07.223Z,1.61
2022-12-11T20:33:33.844Z,1.86
2022-12-11T20:36:00.321Z,1.50
2022-12-11T20:38:31.258Z,1.72
2022-12-11T20:41:00.744Z,1.62
2022-12-11T20:43:27.298Z,1.82
2022-12-11T20:45:53.913Z,1.92
2022-12-11T20:48:20.458Z,1.90
2022-12-11T20:50:47.001Z,1.73
2022-12-11T20:53:13.525Z,1.67
2022-12-11T20:55:41.349Z,1.87
2022-12-11T20:58:08.859Z,2.08
2022-12-11T21:00:39.437Z,2.01
2022-12-11T21:03:06.385Z,1.97
2022-12-11T21:05:32.967Z,1.96
2022-12-11T21:07:59.582Z,2.07
2022-12-11T21:10:26.141Z,1.96
2022-12-11T21:12:52.608Z,2.01
2022-12-11T21:15:19.124Z,1.95
2022-12-11T21:17:45.719Z,1.95
2022-12-11T21:20:12.328Z,2.01
2022-12-11T21:22:38.814Z,1.77
2022-12-11T21:25:05.773Z,1.57
2022-12-11T21:27:32.265Z,1.77
2022-12-11T21:29:58.829Z,1.43
2022-12-11T21:32:25.527Z,1.70
2022-12-11T21:34:52.018Z,1.77
2022-12-11T21:37:18.651Z,1.84
2022-12-11T21:39:45.228Z,1.96
2022-12-11T21:42:11.754Z,2.00
2022-12-11T21:45:37.138Z,1.87
2022-12-11T21:47:24.908Z,2.09
2022-12-11T21:49:51.397Z,2.12
2022-12-11T21:52:17.909Z,1.98
2022-12-11T21:54:44.388Z,1.85
2022-12-11T21:57:10.892Z,2.01
2022-12-11T21:59:37.402Z,2.03
2022-12-11T22:02:03.936Z,2.01
2022-12-11T22:04:30.515Z,2.14
2022-12-11T22:06:57.012Z,2.03
2022-12-11T22:09:23.825Z,2.18
2022-12-11T22:11:55.158Z,2.19
2022-12-11T22:14:24.809Z,2.22
2022-12-11T22:16:54.430Z,2.02
2022-12-11T22:19:21.388Z,1.96
2022-12-11T22:21:48.100Z,2.00
2022-12-11T22:24:15.181Z,2.16
2022-12-11T22:26:41.919Z,2.04
2022-12-11T22:29:08.979Z,2.00
2022-12-11T22:31:38.430Z,2.15
2022-12-11T22:34:05.485Z,2.10
2022-12-11T22:36:32.272Z,2.30
2022-12-11T22:39:00.304Z,2.40
2022-12-11T22:41:31.926Z,2.37
2022-12-11T22:43:59.136Z,2.40
2022-12-11T22:46:28.756Z,2.08
2022-12-11T22:48:55.538Z,2.18
2022-12-11T22:51:22.788Z,2.36
2022-12-11T22:53:49.410Z,2.36
2022-12-11T22:56:16.151Z,2.13
2022-12-11T22:58:42.686Z,2.17
2022-12-11T23:01:12.059Z,2.25
2022-12-11T23:03:38.985Z,2.13
2022-12-11T23:06:08.110Z,2.24
2022-12-11T23:08:35.562Z,2.06
2022-12-11T23:11:02.792Z,2.07
2022-12-11T23:13:29.330Z,2.23
2022-12-11T23:15:55.935Z,2.00
2022-12-11T23:18:22.425Z,1.64
2022-12-11T23:20:49.364Z,1.71
2022-12-11T23:23:19.025Z,1.81
2022-12-11T23:25:51.455Z,1.69
2022-12-11T23:28:18.137Z,1.39
2022-12-11T23:30:45.138Z,1.52
2022-12-11T23:33:12.134Z,1.38
2022-12-11T23:35:38.919Z,1.45
2022-12-11T23:38:05.478Z,1.38
2022-12-11T23:40:32.870Z,1.67
2022-12-11T23:42:59.362Z,1.58
2022-12-11T23:45:25.885Z,1.52
2022-12-11T23:47:52.346Z,1.66
2022-12-11T23:50:19.244Z,1.53
2022-12-11T23:52:45.720Z,1.43
2022-12-11T23:55:12.476Z,1.67
2022-12-11T23:57:39.091Z,1.11
